createdAt,value
2017-12-04T00:00:14.754Z,29.77
2017-12-04T00:02:42.286Z,22.20
2017-12-04T00:05:10.103Z,29.10
2017-12-04T00:07:37.682Z,26.58
2017-12-04T00:10:05.189Z,25.33
2017-12-04T00:12:32.696Z,23.50
2017-12-04T00:15:00.251Z,30.50
2017-12-04T00:17:27.758Z,24.92
2017-12-04T00:19:55.272Z,21.77
2017-12-04T00:22:22.831Z,23.67
2017-12-04T00:24:50.344Z,34.05
2017-12-04T00:27:17.866Z,20.88
2017-12-04T00:29:45.411Z,22.35
2017-12-04T00:32:12.927Z,23.85
2017-12-04T00:34:41.123Z,27.40
2017-12-04T00:37:09.356Z,24.25
2017-12-04T00:39:38.496Z,26.90
2017-12-04T00:42:06.002Z,25.70
2017-12-04T00:44:33.573Z,30.88
2017-12-04T00:47:01.082Z,25.85
2017-12-04T00:49:28.595Z,24.45
2017-12-04T00:51:56.918Z,28.10
2017-12-04T00:54:24.430Z,28.62
2017-12-04T00:56:51.944Z,29.15
2017-12-04T00:59:19.510Z,26.37
2017-12-04T01:01:47.019Z,27.80
2017-12-04T01:04:14.531Z,30.83
2017-12-04T01:06:42.730Z,26.05
2017-12-04T01:09:10.238Z,31.25
2017-12-04T01:11:37.761Z,34.78
2017-12-04T01:14:05.435Z,24.77
2017-12-04T01:16:33.350Z,27.27
2017-12-04T01:19:00.960Z,29.00
2017-12-04T01:21:28.426Z,31.20
2017-12-04T01:23:56.548Z,27.62
2017-12-04T01:26:24.083Z,27.62
2017-12-04T01:28:51.602Z,30.98
2017-12-04T01:31:19.114Z,30.67
2017-12-04T01:33:47.240Z,26.20
2017-12-04T01:36:14.978Z,28.35
2017-12-04T01:38:42.487Z,37.53
2017-12-04T01:41:10.356Z,23.35
2017-12-04T01:43:37.878Z,32.47
2017-12-04T01:46:05.382Z,29.02
2017-12-04T01:48:32.964Z,23.20
2017-12-04T01:51:01.023Z,25.00
2017-12-04T01:53:29.063Z,29.37
2017-12-04T01:55:56.587Z,22.15
2017-12-04T01:58:24.094Z,29.42
2017-12-04T02:00:51.658Z,25.62
2017-12-04T02:03:19.170Z,25.10
2017-12-04T02:05:46.723Z,31.35
2017-12-04T02:08:14.231Z,30.88
2017-12-04T02:10:41.750Z,29.65
2017-12-04T02:13:09.303Z,25.70
2017-12-04T02:15:36.839Z,29.20
2017-12-04T02:18:04.654Z,25.73
2017-12-04T02:20:32.243Z,25.33
2017-12-04T02:23:00.064Z,27.45
2017-12-04T02:25:27.888Z,28.85
2017-12-04T02:27:55.449Z,28.60
2017-12-04T02:30:24.786Z,32.78
2017-12-04T02:32:52.442Z,29.27
2017-12-04T02:35:19.988Z,23.35
2017-12-04T02:37:47.505Z,22.30
2017-12-04T02:40:15.022Z,23.35
2017-12-04T02:42:42.588Z,23.20
2017-12-04T02:45:10.107Z,26.45
2017-12-04T02:47:37.623Z,26.67
2017-12-04T02:50:05.212Z,27.70
2017-12-04T02:52:32.714Z,34.97
2017-12-04T02:55:00.371Z,35.15
2017-12-04T02:57:27.935Z,20.92
2017-12-04T02:59:55.447Z,20.98
2017-12-04T03:02:24.047Z,32.80
2017-12-04T03:04:53.250Z,21.60
2017-12-04T03:07:21.519Z,18.95
2017-12-04T03:09:49.811Z,20.83
2017-12-04T03:12:17.681Z,16.95
2017-12-04T03:14:46.495Z,17.90
2017-12-04T03:17:14.341Z,17.37
2017-12-04T03:19:43.827Z,18.70
2017-12-04T03:22:12.585Z,14.23
2017-12-04T03:24:41.121Z,20.37
2017-12-04T03:27:11.064Z,20.40
2017-12-04T03:29:39.382Z,15.10
2017-12-04T03:32:07.338Z,23.87
2017-12-04T03:34:35.382Z,23.73
2017-12-04T03:37:03.488Z,28.40
2017-12-04T03:39:31.072Z,17.92
2017-12-04T03:41:58.582Z,16.05
2017-12-04T03:44:26.087Z,15.10
2017-12-04T03:46:53.665Z,17.85
2017-12-04T03:49:21.544Z,16.62
2017-12-04T03:51:49.503Z,15.80
2017-12-04T03:54:17.978Z,13.88
2017-12-04T03:56:46.068Z,13.80
2017-12-04T03:59:13.852Z,17.55
2017-12-04T04:01:41.468Z,23.87
2017-12-04T04:04:08.979Z,16.95
2017-12-04T04:06:36.847Z,13.98
2017-12-04T04:09:04.538Z,13.20
2017-12-04T04:11:32.131Z,18.60
2017-12-04T04:13:59.666Z,17.05
2017-12-04T04:16:27.171Z,17.83
2017-12-04T04:18:54.710Z,17.83
2017-12-04T04:21:22.268Z,18.48
2017-12-04T04:23:49.779Z,16.00
2017-12-04T04:26:17.287Z,16.55
2017-12-04T04:28:44.831Z,17.33
2017-12-04T04:31:12.335Z,16.77
2017-12-04T04:33:39.858Z,21.12
2017-12-04T04:36:07.767Z,26.80
2017-12-04T04:38:35.270Z,20.80
2017-12-04T04:41:02.809Z,17.02
2017-12-04T04:43:31.057Z,19.20
2017-12-04T04:45:58.563Z,19.05
2017-12-04T04:48:26.076Z,20.27
2017-12-04T04:50:54.090Z,18.70
2017-12-04T04:53:21.596Z,20.50
2017-12-04T04:55:49.335Z,22.77
2017-12-04T04:58:17.062Z,17.02
2017-12-04T05:00:44.667Z,16.73
2017-12-04T05:03:12.179Z,17.37
2017-12-04T05:05:39.735Z,20.10
2017-12-04T05:08:07.250Z,15.30
2017-12-04T05:10:34.799Z,17.83
2017-12-04T05:13:02.363Z,26.08
2017-12-04T05:15:29.907Z,30.15
2017-12-04T05:17:57.415Z,18.37
2017-12-04T05:20:24.922Z,31.95
2017-12-04T05:22:52.507Z,18.33
2017-12-04T05:25:20.794Z,19.42
2017-12-04T05:27:49.071Z,35.67
2017-12-04T05:30:17.406Z,24.25
2017-12-04T05:32:45.486Z,23.98
2017-12-04T05:35:12.999Z,21.58
2017-12-04T05:37:40.586Z,20.92
2017-12-04T05:40:08.554Z,26.05
2017-12-04T05:42:36.067Z,36.78
2017-12-04T05:45:03.611Z,35.47
2017-12-04T05:47:31.116Z,27.67
2017-12-04T05:49:58.679Z,27.87
2017-12-04T05:52:26.182Z,23.20
2017-12-04T05:54:53.692Z,23.42
2017-12-04T05:57:21.560Z,25.65
2017-12-04T05:59:49.074Z,23.52
2017-12-04T06:02:16.588Z,17.50
2017-12-04T06:04:44.150Z,17.73
2017-12-04T06:07:12.219Z,18.83
2017-12-04T06:09:39.733Z,19.65
2017-12-04T06:12:07.857Z,18.30
2017-12-04T06:14:35.370Z,23.87
2017-12-04T06:17:03.795Z,19.33
2017-12-04T06:19:31.306Z,20.60
2017-12-04T06:21:59.641Z,25.80
2017-12-04T06:24:27.320Z,26.65
2017-12-04T06:26:55.086Z,28.70
2017-12-04T06:29:22.590Z,41.78
2017-12-04T06:31:50.155Z,27.92
2017-12-04T06:34:17.662Z,29.75
2017-12-04T06:36:45.171Z,28.35
2017-12-04T06:39:12.731Z,26.50
2017-12-04T06:41:40.790Z,20.27
2017-12-04T06:44:08.302Z,27.67
2017-12-04T06:46:35.963Z,22.98
2017-12-04T06:49:03.482Z,24.83
2017-12-04T06:51:31.958Z,28.92
2017-12-04T06:53:59.544Z,26.83
2017-12-04T06:56:27.066Z,23.60
2017-12-04T06:58:54.581Z,28.87
2017-12-04T07:01:22.146Z,27.40
2017-12-04T07:03:49.663Z,25.15
2017-12-04T07:06:17.339Z,25.23
2017-12-04T07:08:44.871Z,34.17
2017-12-04T07:11:13.163Z,33.33
2017-12-04T07:13:40.722Z,32.47
2017-12-04T07:16:08.395Z,23.80
2017-12-04T07:18:35.911Z,32.83
2017-12-04T07:21:04.122Z,29.20
2017-12-04T07:23:31.750Z,40.03
2017-12-04T07:25:59.406Z,34.03
2017-12-04T07:28:27.047Z,36.17
2017-12-04T07:30:56.079Z,35.97
2017-12-04T07:33:23.597Z,42.88
2017-12-04T07:35:51.138Z,42.58
2017-12-04T07:38:18.652Z,34.80
2017-12-04T07:40:46.172Z,37.20
2017-12-04T07:43:13.719Z,41.67
2017-12-04T07:45:41.233Z,46.83
2017-12-04T07:48:08.750Z,37.58
2017-12-04T07:50:36.292Z,41.05
2017-12-04T07:53:03.803Z,32.40
2017-12-04T07:55:31.319Z,48.15
2017-12-04T07:57:59.035Z,28.02
2017-12-04T08:00:27.414Z,32.90
2017-12-04T08:02:54.742Z,35.35
2017-12-04T08:05:22.871Z,45.95
2017-12-04T08:07:50.138Z,34.35
2017-12-04T08:10:17.662Z,32.58
2017-12-04T08:12:45.219Z,25.67
2017-12-04T08:15:13.088Z,22.70
2017-12-04T08:17:40.598Z,24.35
2017-12-04T08:20:08.190Z,23.42
2017-12-04T08:22:35.686Z,30.13
2017-12-04T08:25:03.204Z,30.30
2017-12-04T08:27:30.763Z,29.17
2017-12-04T08:29:58.280Z,21.73
2017-12-04T08:32:26.162Z,30.95
2017-12-04T08:34:53.819Z,20.92
2017-12-04T08:37:21.987Z,17.37
2017-12-04T08:39:49.674Z,19.97
2017-12-04T08:42:17.266Z,19.42
2017-12-04T08:44:44.779Z,20.60
2017-12-04T08:47:12.430Z,15.88
2017-12-04T08:49:39.962Z,21.08
2017-12-04T08:52:07.471Z,18.80
2017-12-04T08:54:34.978Z,15.75
2017-12-04T08:57:02.999Z,20.33
2017-12-04T08:59:30.511Z,21.60
2017-12-04T09:01:58.022Z,14.75
2017-12-04T09:04:25.591Z,15.27
2017-12-04T09:06:53.103Z,20.37
2017-12-04T09:09:20.606Z,24.65
2017-12-04T09:11:47.925Z,13.88
2017-12-04T09:14:15.434Z,17.03
2017-12-04T09:16:42.938Z,18.12
2017-12-04T09:19:10.503Z,37.97
2017-12-04T09:21:38.149Z,27.00
2017-12-04T09:24:05.704Z,30.37
2017-12-04T09:26:33.240Z,29.40
2017-12-04T09:29:00.803Z,27.48
2017-12-04T09:31:28.314Z,21.43
2017-12-04T09:33:55.815Z,29.20
2017-12-04T09:36:23.371Z,35.27
2017-12-04T09:38:50.890Z,24.97
2017-12-04T09:41:18.411Z,27.95
2017-12-04T09:43:45.975Z,23.40
2017-12-04T09:46:13.483Z,25.10
2017-12-04T09:48:40.986Z,21.40
2017-12-04T09:51:08.550Z,20.88
2017-12-04T09:53:36.063Z,25.83
2017-12-04T09:56:03.337Z,21.27
2017-12-04T09:58:30.915Z,27.53
2017-12-04T10:00:58.422Z,21.73
2017-12-04T10:03:25.951Z,31.80
2017-12-04T10:05:53.503Z,23.90
2017-12-04T10:08:21.016Z,25.90
2017-12-04T10:10:48.535Z,25.42
2017-12-04T10:13:16.139Z,25.05
2017-12-04T10:15:43.638Z,21.20
2017-12-04T10:18:11.152Z,24.02
2017-12-04T10:20:38.817Z,21.83
2017-12-04T10:23:06.676Z,19.10
2017-12-04T10:25:34.310Z,20.77
2017-12-04T10:28:01.816Z,25.15
2017-12-04T10:30:29.649Z,23.73
2017-12-04T10:32:57.927Z,20.20
2017-12-04T10:35:26.214Z,22.42
2017-12-04T10:37:54.534Z,22.03
2017-12-04T10:40:22.047Z,21.35
2017-12-04T10:42:49.556Z,16.03
2017-12-04T10:45:17.103Z,19.87
2017-12-04T10:47:44.607Z,23.63
2017-12-04T10:50:12.164Z,17.50
2017-12-04T10:52:39.734Z,20.43
2017-12-04T10:55:07.247Z,10.80
2017-12-04T10:57:34.763Z,21.30
2017-12-04T11:00:02.318Z,18.10
2017-12-04T11:02:29.875Z,19.37
2017-12-04T11:04:58.179Z,19.67
2017-12-04T11:07:25.663Z,28.33
2017-12-04T11:09:53.166Z,19.17
2017-12-04T11:12:20.684Z,20.58
2017-12-04T11:14:49.259Z,16.25
2017-12-04T11:17:16.772Z,20.57
2017-12-04T11:19:44.278Z,27.90
2017-12-04T11:22:12.771Z,25.90
2017-12-04T11:24:40.314Z,18.83
2017-12-04T11:27:07.822Z,24.67
2017-12-04T11:29:35.334Z,19.70
2017-12-04T11:32:02.906Z,20.43
2017-12-04T11:34:30.417Z,14.17
2017-12-04T11:36:57.929Z,13.60
2017-12-04T11:39:25.489Z,16.90
2017-12-04T11:41:53.019Z,12.50
2017-12-04T11:44:20.537Z,15.23
2017-12-04T11:46:48.110Z,16.30
2017-12-04T11:49:15.738Z,16.40
2017-12-04T11:51:43.354Z,14.60
2017-12-04T11:54:10.896Z,14.60
2017-12-04T11:56:38.411Z,14.87
2017-12-04T11:59:05.923Z,19.37
2017-12-04T12:01:33.495Z,13.57
2017-12-04T12:04:01.015Z,14.65
2017-12-04T12:06:28.527Z,12.90
2017-12-04T12:08:56.087Z,9.50
2017-12-04T12:11:23.595Z,18.00
2017-12-04T12:13:51.103Z,14.10
2017-12-04T12:16:18.666Z,16.83
2017-12-04T12:18:46.171Z,16.10
2017-12-04T12:21:13.683Z,18.65
2017-12-04T12:23:41.251Z,16.60
2017-12-04T12:26:08.754Z,17.48
2017-12-04T12:28:36.269Z,14.55
2017-12-04T12:31:04.198Z,20.33
2017-12-04T12:33:31.800Z,10.80
2017-12-04T12:35:59.305Z,15.50
2017-12-04T12:38:26.859Z,33.57
2017-12-04T12:40:54.373Z,23.83
2017-12-04T12:43:21.877Z,19.40
2017-12-04T12:45:49.442Z,21.60
2017-12-04T12:48:16.967Z,14.10
2017-12-04T12:50:44.467Z,13.17
2017-12-04T12:53:12.047Z,11.93
2017-12-04T12:55:39.586Z,18.27
2017-12-04T12:58:07.095Z,14.70
2017-12-04T13:00:34.671Z,13.43
2017-12-04T13:03:02.180Z,12.43
2017-12-04T13:05:29.682Z,16.70
2017-12-04T13:07:57.262Z,15.77
2017-12-04T13:10:24.768Z,16.33
2017-12-04T13:12:52.291Z,14.97
2017-12-04T13:15:20.615Z,13.17
2017-12-04T13:17:48.226Z,14.97
2017-12-04T13:20:15.739Z,12.80
2017-12-04T13:22:43.755Z,16.27
2017-12-04T13:25:12.030Z,10.90
2017-12-04T13:27:39.294Z,16.00
2017-12-04T13:30:06.868Z,14.60
2017-12-04T13:32:46.098Z,16.03
2017-12-04T13:35:25.471Z,15.83
2017-12-04T13:37:53.046Z,16.30
2017-12-04T13:40:20.552Z,20.55
2017-12-04T13:42:48.089Z,17.45
2017-12-04T13:45:15.602Z,16.10
2017-12-04T13:47:43.640Z,17.33
2017-12-04T13:50:11.155Z,16.73
2017-12-04T13:52:38.656Z,19.50
2017-12-04T13:55:06.429Z,17.65
2017-12-04T13:57:33.943Z,16.20
2017-12-04T14:00:02.219Z,16.52
2017-12-04T14:02:30.555Z,16.87
2017-12-04T14:04:58.066Z,11.07
2017-12-04T14:07:25.584Z,13.40
2017-12-04T14:09:53.147Z,17.80
2017-12-04T14:12:20.720Z,15.20
2017-12-04T14:14:48.230Z,12.07
2017-12-04T14:17:15.786Z,13.62
2017-12-04T14:19:43.296Z,18.67
2017-12-04T14:22:10.811Z,14.02
2017-12-04T14:24:38.362Z,12.30
2017-12-04T14:27:05.861Z,20.40
2017-12-04T14:29:33.367Z,17.53
2017-12-04T14:32:00.934Z,13.30
2017-12-04T14:34:28.619Z,14.35
2017-12-04T14:36:57.442Z,16.50
2017-12-04T14:39:25.828Z,16.83
2017-12-04T14:41:54.750Z,15.30
2017-12-04T14:44:22.259Z,16.25
2017-12-04T14:46:49.827Z,10.10
2017-12-04T14:49:17.330Z,11.37
2017-12-04T14:51:44.951Z,14.30
2017-12-04T14:54:12.491Z,13.83
2017-12-04T14:56:40.008Z,17.20
2017-12-04T14:59:07.530Z,13.83
2017-12-04T15:01:35.093Z,11.98
2017-12-04T15:04:02.616Z,16.02
2017-12-04T15:06:30.127Z,9.80
2017-12-04T15:08:58.466Z,11.00
2017-12-04T15:11:25.963Z,13.13
2017-12-04T15:13:53.489Z,10.82
2017-12-04T15:16:21.056Z,10.88
2017-12-04T15:18:48.565Z,11.43
2017-12-04T15:21:16.066Z,16.87
2017-12-04T15:23:43.592Z,14.57
2017-12-04T15:26:11.090Z,9.20
2017-12-04T15:28:38.595Z,22.33
2017-12-04T15:31:06.154Z,10.03
2017-12-04T15:33:33.662Z,12.20
2017-12-04T15:36:01.107Z,11.83
2017-12-04T15:38:28.776Z,10.77
2017-12-04T15:40:56.359Z,10.98
2017-12-04T15:43:23.995Z,16.33
2017-12-04T15:45:51.355Z,11.60
2017-12-04T15:48:18.923Z,13.38
2017-12-04T15:50:46.495Z,9.40
2017-12-04T15:53:14.010Z,17.00
2017-12-04T15:55:41.691Z,12.80
2017-12-04T15:58:09.263Z,14.83
2017-12-04T16:00:36.780Z,19.83
2017-12-04T16:03:04.357Z,13.50
2017-12-04T16:05:31.859Z,16.50
2017-12-04T16:07:59.355Z,13.40
2017-12-04T16:10:26.870Z,10.32
2017-12-04T16:12:54.430Z,15.00
2017-12-04T16:15:21.942Z,14.33
2017-12-04T16:17:49.444Z,12.87
2017-12-04T16:20:17.291Z,21.10
2017-12-04T16:22:44.805Z,13.07
2017-12-04T16:25:12.318Z,14.90
2017-12-04T16:27:41.670Z,15.53
2017-12-04T16:30:09.174Z,13.10
2017-12-04T16:32:36.686Z,14.33
2017-12-04T16:35:04.354Z,16.93
2017-12-04T16:37:32.679Z,12.70
2017-12-04T16:40:00.538Z,18.47
2017-12-04T16:42:28.115Z,13.27
2017-12-04T16:44:55.464Z,15.90
2017-12-04T16:47:23.733Z,11.47
2017-12-04T16:49:51.481Z,13.30
2017-12-04T16:52:19.236Z,14.67
2017-12-04T16:54:46.747Z,17.33
2017-12-04T16:57:14.261Z,15.93
2017-12-04T16:59:41.579Z,16.20
2017-12-04T17:02:09.091Z,14.87
2017-12-04T17:04:36.678Z,11.13
2017-12-04T17:07:04.939Z,12.60
2017-12-04T17:09:32.443Z,12.07
2017-12-04T17:11:59.975Z,8.37
2017-12-04T17:14:27.674Z,13.02
2017-12-04T17:16:55.298Z,9.90
2017-12-04T17:19:22.827Z,12.27
2017-12-04T17:21:50.338Z,14.87
2017-12-04T17:24:17.904Z,9.18
2017-12-04T17:26:45.413Z,15.73
2017-12-04T17:29:12.923Z,16.40
2017-12-04T17:31:40.502Z,14.03
2017-12-04T17:34:08.014Z,15.00
2017-12-04T17:36:36.286Z,13.40
2017-12-04T17:39:04.611Z,10.98
2017-12-04T17:41:32.116Z,11.70
2017-12-04T17:43:59.633Z,10.53
2017-12-04T17:46:27.627Z,11.87
2017-12-04T17:48:55.128Z,10.63
2017-12-04T17:51:22.846Z,11.07
2017-12-04T17:53:50.751Z,14.87
2017-12-04T17:56:19.018Z,14.37
2017-12-04T17:58:47.290Z,10.97
2017-12-04T18:01:15.622Z,10.57
2017-12-04T18:03:43.122Z,9.30
2017-12-04T18:06:10.627Z,11.70
2017-12-04T18:08:38.177Z,10.23
2017-12-04T18:11:05.710Z,13.23
2017-12-04T18:13:33.253Z,10.50
2017-12-04T18:16:00.803Z,20.50
2017-12-04T18:18:28.066Z,11.73
2017-12-04T18:20:55.583Z,11.10
2017-12-04T18:23:23.151Z,14.73
2017-12-04T18:25:50.850Z,13.30
2017-12-04T18:28:18.427Z,16.90
2017-12-04T18:30:46.787Z,14.17
2017-12-04T18:33:14.299Z,13.27
2017-12-04T18:35:41.807Z,20.10
2017-12-04T18:38:09.387Z,17.20
2017-12-04T18:40:36.914Z,18.50
2017-12-04T18:43:04.418Z,15.73
2017-12-04T18:45:32.021Z,16.03
2017-12-04T18:48:00.004Z,18.63
2017-12-04T18:50:28.264Z,19.00
2017-12-04T18:52:56.005Z,18.10
2017-12-04T18:55:23.523Z,16.50
2017-12-04T18:57:51.286Z,17.80
2017-12-04T19:00:19.720Z,14.57
2017-12-04T19:02:47.261Z,18.67
2017-12-04T19:05:14.785Z,17.50
2017-12-04T19:07:42.412Z,12.07
2017-12-04T19:10:09.932Z,19.43
2017-12-04T19:12:37.692Z,24.10
2017-12-04T19:15:05.246Z,15.93
2017-12-04T19:17:32.794Z,20.97
2017-12-04T19:20:00.309Z,12.50
2017-12-04T19:22:27.928Z,12.90
2017-12-04T19:24:55.503Z,18.97
2017-12-04T19:27:23.059Z,21.25
2017-12-04T19:29:50.639Z,27.53
2017-12-04T19:32:19.160Z,33.63
2017-12-04T19:34:47.401Z,23.60
2017-12-04T19:37:14.951Z,20.43
2017-12-04T19:39:43.342Z,15.97
2017-12-04T19:42:11.243Z,16.93
2017-12-04T19:44:38.804Z,15.50
2017-12-04T19:47:07.127Z,20.03
2017-12-04T19:49:34.910Z,14.90
2017-12-04T19:52:02.819Z,15.97
2017-12-04T19:54:31.202Z,19.50
2017-12-04T19:56:58.724Z,17.00
2017-12-04T19:59:26.273Z,16.83
2017-12-04T20:01:53.991Z,20.97
2017-12-04T20:04:21.560Z,22.60
2017-12-04T20:06:49.109Z,17.03
2017-12-04T20:09:16.683Z,24.27
2017-12-04T20:11:44.227Z,22.30
2017-12-04T20:14:12.548Z,19.25
2017-12-04T20:16:40.183Z,26.40
2017-12-04T20:19:08.314Z,38.95
2017-12-04T20:21:36.131Z,20.53
2017-12-04T20:24:03.938Z,15.87
2017-12-04T20:26:31.471Z,22.13
2017-12-04T20:28:59.193Z,19.07
2017-12-04T20:31:26.791Z,21.08
2017-12-04T20:33:54.346Z,17.57
2017-12-04T20:36:21.853Z,21.90
2017-12-04T20:38:49.386Z,14.80
2017-12-04T20:41:16.935Z,19.03
2017-12-04T20:43:44.447Z,15.50
2017-12-04T20:46:11.961Z,19.47
2017-12-04T20:48:39.519Z,14.00
2017-12-04T20:51:07.049Z,20.77
2017-12-04T20:53:34.571Z,26.13
2017-12-04T20:56:02.993Z,25.60
2017-12-04T20:58:30.511Z,22.07
2017-12-04T21:00:57.950Z,23.97
2017-12-04T21:03:25.539Z,21.30
2017-12-04T21:05:53.047Z,14.67
2017-12-04T21:08:26.867Z,19.30
2017-12-04T21:11:06.183Z,17.43
2017-12-04T21:13:45.606Z,15.17
2017-12-04T21:16:24.874Z,13.83
2017-12-04T21:18:52.778Z,17.17
2017-12-04T21:21:20.679Z,17.23
2017-12-04T21:23:48.927Z,14.00
2017-12-04T21:26:17.636Z,16.53
2017-12-04T21:28:45.397Z,25.60
2017-12-04T21:31:12.909Z,16.10
2017-12-04T21:33:41.587Z,17.27
2017-12-04T21:36:09.538Z,18.77
2017-12-04T21:38:37.055Z,13.90
2017-12-04T21:41:05.526Z,12.27
2017-12-04T21:43:33.078Z,23.93
2017-12-04T21:46:01.359Z,17.60
2017-12-04T21:48:29.592Z,15.07
2017-12-04T21:50:57.107Z,25.17
2017-12-04T21:53:24.614Z,17.03
2017-12-04T21:55:52.643Z,19.83
2017-12-04T21:58:20.215Z,19.10
2017-12-04T22:00:48.347Z,28.83
2017-12-04T22:03:16.866Z,31.17
2017-12-04T22:05:44.451Z,25.13
2017-12-04T22:08:12.007Z,36.60
2017-12-04T22:10:39.579Z,16.63
2017-12-04T22:13:07.082Z,22.07
2017-12-04T22:15:34.591Z,19.77
2017-12-04T22:18:02.159Z,23.13
2017-12-04T22:20:29.659Z,30.73
2017-12-04T22:22:57.175Z,34.90
2017-12-04T22:25:25.123Z,28.03
2017-12-04T22:27:53.130Z,20.80
2017-12-04T22:30:20.635Z,27.03
2017-12-04T22:32:48.299Z,16.80
2017-12-04T22:35:16.354Z,16.40
2017-12-04T22:37:43.887Z,17.03
2017-12-04T22:40:12.219Z,16.13
2017-12-04T22:42:40.319Z,18.30
2017-12-04T22:45:07.836Z,21.17
2017-12-04T22:47:35.489Z,15.30
2017-12-04T22:50:03.564Z,14.80
2017-12-04T22:52:31.100Z,19.30
2017-12-04T22:54:59.510Z,18.93
2017-12-04T22:57:27.006Z,12.60
2017-12-04T22:59:54.510Z,14.33
2017-12-04T23:02:22.339Z,14.30
2017-12-04T23:04:50.416Z,12.60
2017-12-04T23:07:17.918Z,14.00
2017-12-04T23:09:45.488Z,23.27
2017-12-04T23:12:12.991Z,15.37
2017-12-04T23:14:40.490Z,15.33
2017-12-04T23:17:08.050Z,13.53
2017-12-04T23:19:35.550Z,17.57
2017-12-04T23:22:03.059Z,16.20
2017-12-04T23:24:30.623Z,16.90
2017-12-04T23:26:58.187Z,19.13
2017-12-04T23:29:25.690Z,17.10
2017-12-04T23:31:53.262Z,15.03
2017-12-04T23:34:20.775Z,18.90
2017-12-04T23:36:48.338Z,17.37
2017-12-04T23:39:15.906Z,20.80
2017-12-04T23:41:43.410Z,16.30
2017-12-04T23:44:10.915Z,14.03
2017-12-04T23:46:38.461Z,22.03
2017-12-04T23:49:05.983Z,22.30
2017-12-04T23:51:33.511Z,18.83
2017-12-04T23:54:01.051Z,22.33
2017-12-04T23:56:29.331Z,20.53
2017-12-04T23:58:57.619Z,15.87
